createdAt,value
2023-03-21T00:01:52.464Z,1.85
2023-03-21T00:04:20.877Z,3.92
2023-03-21T00:06:50.689Z,1.83
2023-03-21T00:09:19.076Z,2.67
2023-03-21T00:11:48.131Z,1.75
2023-03-21T00:14:18.818Z,3.10
2023-03-21T00:16:50.308Z,1.25
2023-03-21T00:19:19.216Z,2.25
2023-03-21T00:22:03.710Z,2.22
2023-03-21T00:24:36.175Z,2.17
2023-03-21T00:29:52.915Z,2.60
2023-03-21T00:32:21.943Z,1.88
2023-03-21T00:35:08.115Z,1.70
2023-03-21T00:37:40.221Z,1.52
2023-03-21T00:40:23.016Z,2.65
2023-03-21T00:42:56.484Z,2.70
2023-03-21T00:45:24.794Z,2.00
2023-03-21T00:47:53.231Z,4.10
2023-03-21T00:50:21.672Z,1.63
2023-03-21T00:52:49.968Z,2.55
2023-03-21T00:55:19.743Z,3.40
2023-03-21T00:57:56.258Z,2.10
2023-03-21T01:00:29.797Z,2.13
2023-03-21T01:03:21.479Z,3.53
2023-03-21T01:06:05.427Z,2.33
2023-03-21T01:08:48.552Z,2.67
2023-03-21T01:11:22.542Z,5.40
2023-03-21T01:14:10.757Z,4.70
2023-03-21T01:16:39.454Z,2.15
2023-03-21T01:19:14.857Z,2.40
2023-03-21T01:21:46.700Z,3.05
2023-03-21T01:24:14.999Z,4.22
2023-03-21T01:26:44.691Z,2.92
2023-03-21T01:29:13.078Z,2.05
2023-03-21T01:31:41.455Z,4.32
2023-03-21T01:34:09.854Z,2.75
2023-03-21T01:36:38.306Z,2.90
2023-03-21T01:39:07.156Z,2.15
2023-03-21T01:41:42.886Z,2.65
2023-03-21T01:44:15.754Z,3.45
2023-03-21T01:46:57.008Z,1.85
2023-03-21T01:49:27.019Z,3.55
2023-03-21T01:52:01.040Z,4.18
2023-03-21T01:54:37.348Z,3.70
2023-03-21T01:57:07.376Z,2.45
2023-03-21T01:59:37.893Z,3.80
2023-03-21T02:02:10.966Z,2.67
2023-03-21T02:04:39.450Z,3.63
2023-03-21T02:07:09.120Z,2.55
2023-03-21T02:09:40.154Z,3.90
2023-03-21T02:12:09.239Z,4.55
2023-03-21T02:14:39.085Z,3.70
2023-03-21T02:17:11.618Z,5.60
2023-03-21T02:20:07.347Z,2.55
2023-03-21T02:23:05.584Z,3.80
2023-03-21T02:28:17.386Z,3.05
2023-03-21T02:31:21.247Z,3.28
2023-03-21T02:34:01.212Z,4.45
2023-03-21T02:36:33.321Z,4.97
2023-03-21T02:39:08.779Z,2.05
2023-03-21T02:41:40.803Z,1.98
2023-03-21T02:44:11.699Z,2.40
2023-03-21T02:46:45.653Z,3.78
2023-03-21T02:49:20.024Z,2.55
2023-03-21T02:51:48.411Z,2.42
2023-03-21T02:54:38.309Z,2.95
2023-03-21T02:57:07.229Z,2.35
2023-03-21T02:59:39.403Z,3.00
2023-03-21T03:02:10.058Z,3.72
2023-03-21T03:04:38.448Z,2.90
2023-03-21T03:07:18.738Z,2.20
2023-03-21T03:10:00.728Z,2.65
2023-03-21T03:12:32.607Z,3.58
2023-03-21T03:15:05.170Z,4.53
2023-03-21T03:17:40.324Z,2.47
2023-03-21T03:20:17.502Z,2.55
2023-03-21T03:22:50.309Z,3.10
2023-03-21T03:25:35.998Z,2.85
2023-03-21T03:28:09.818Z,4.47
2023-03-21T03:30:43.340Z,6.60
2023-03-21T03:33:16.940Z,3.60
2023-03-21T03:35:48.279Z,6.63
2023-03-21T03:38:22.016Z,2.50
2023-03-21T03:40:53.767Z,2.10
2023-03-21T03:43:24.328Z,3.70
2023-03-21T03:45:55.818Z,5.50
2023-03-21T03:48:28.021Z,4.90
2023-03-21T03:50:58.545Z,5.15
2023-03-21T03:53:28.442Z,2.60
2023-03-21T03:55:58.112Z,3.60
2023-03-21T03:58:39.425Z,3.42
2023-03-21T04:01:11.611Z,9.70
2023-03-21T04:03:48.933Z,5.82
2023-03-21T04:06:18.089Z,3.00
2023-03-21T04:08:46.486Z,4.15
2023-03-21T04:11:16.529Z,6.38
2023-03-21T04:13:47.087Z,3.47
2023-03-21T04:16:15.458Z,5.53
2023-03-21T04:18:43.840Z,5.90
2023-03-21T04:21:12.823Z,3.47
2023-03-21T04:23:41.295Z,4.30
2023-03-21T04:26:09.754Z,2.90
2023-03-21T04:28:39.795Z,5.07
2023-03-21T04:31:24.436Z,5.57
2023-03-21T04:33:57.680Z,3.65
2023-03-21T04:36:27.691Z,6.97
2023-03-21T04:38:57.259Z,4.30
2023-03-21T04:41:25.674Z,4.97
2023-03-21T04:43:55.954Z,4.80
2023-03-21T04:46:24.350Z,3.67
2023-03-21T04:48:52.726Z,4.55
2023-03-21T04:51:21.033Z,3.45
2023-03-21T04:53:49.532Z,5.65
2023-03-21T04:56:17.880Z,10.30
2023-03-21T04:58:48.252Z,2.92
2023-03-21T05:01:20.734Z,4.70
2023-03-21T05:03:49.205Z,2.75
2023-03-21T05:06:17.807Z,3.15
2023-03-21T05:08:46.165Z,5.25
2023-03-21T05:11:14.449Z,3.67
2023-03-21T05:13:42.787Z,4.97
2023-03-21T05:16:11.408Z,3.92
2023-03-21T05:18:41.075Z,2.92
2023-03-21T05:21:10.599Z,3.97
2023-03-21T05:23:42.138Z,3.75
2023-03-21T05:26:10.951Z,4.90
2023-03-21T05:28:39.927Z,3.25
2023-03-21T05:31:08.855Z,3.88
2023-03-21T05:33:37.221Z,4.03
2023-03-21T05:36:07.729Z,4.13
2023-03-21T05:38:36.121Z,4.43
2023-03-21T05:41:04.546Z,3.42
2023-03-21T05:43:32.947Z,5.63
2023-03-21T05:46:01.273Z,3.67
2023-03-21T05:48:29.627Z,5.18
2023-03-21T05:50:57.970Z,7.15
2023-03-21T05:53:27.624Z,6.13
2023-03-21T05:55:55.974Z,6.97
2023-03-21T05:58:24.276Z,4.13
2023-03-21T06:00:52.642Z,7.28
2023-03-21T06:03:20.956Z,5.78
2023-03-21T06:05:49.301Z,8.63
2023-03-21T06:08:17.595Z,17.52
2023-03-21T06:10:47.337Z,65.18
2023-03-21T06:13:18.507Z,48.97
2023-03-21T06:15:47.014Z,42.53
2023-03-21T06:18:17.853Z,30.52
2023-03-21T06:20:46.271Z,35.97
2023-03-21T06:23:15.720Z,25.42
2023-03-21T06:25:44.021Z,29.63
2023-03-21T06:28:16.565Z,21.00
2023-03-21T06:30:44.923Z,18.67
2023-03-21T06:33:13.355Z,18.20
2023-03-21T06:35:41.711Z,20.08
2023-03-21T06:38:12.206Z,17.13
2023-03-21T06:40:40.913Z,10.50
2023-03-21T06:43:09.240Z,13.00
2023-03-21T06:45:39.211Z,14.75
2023-03-21T06:48:09.360Z,13.60
2023-03-21T06:50:37.845Z,13.48
2023-03-21T06:53:06.149Z,12.65
2023-03-21T06:55:34.496Z,7.80
2023-03-21T06:58:02.880Z,10.77
2023-03-21T07:00:31.663Z,7.88
2023-03-21T07:03:02.080Z,4.90
2023-03-21T07:05:30.465Z,6.95
2023-03-21T07:08:01.151Z,8.30
2023-03-21T07:10:29.646Z,5.88
2023-03-21T07:12:59.510Z,11.85
2023-03-21T07:15:27.860Z,7.47
2023-03-21T07:17:59.030Z,6.90
2023-03-21T07:20:28.861Z,6.57
2023-03-21T07:22:57.199Z,8.77
2023-03-21T07:25:25.627Z,9.18
2023-03-21T07:27:54.103Z,7.70
2023-03-21T07:30:22.663Z,6.10
2023-03-21T07:32:50.936Z,5.50
2023-03-21T07:35:19.490Z,10.15
2023-03-21T07:37:49.179Z,5.40
2023-03-21T07:40:17.799Z,7.63
2023-03-21T07:42:46.418Z,6.15
2023-03-21T07:45:16.470Z,5.82
2023-03-21T07:47:46.665Z,5.40
2023-03-21T07:50:15.209Z,11.07
2023-03-21T07:52:43.502Z,6.18
2023-03-21T07:55:13.299Z,9.75
2023-03-21T07:57:41.637Z,8.88
2023-03-21T08:00:11.687Z,18.27
2023-03-21T08:02:40.037Z,10.07
2023-03-21T08:05:10.586Z,6.72
2023-03-21T08:07:38.948Z,12.02
2023-03-21T08:10:08.704Z,16.00
2023-03-21T08:12:40.311Z,11.95
2023-03-21T08:15:09.796Z,9.07
2023-03-21T08:17:39.829Z,14.55
2023-03-21T08:20:10.208Z,12.98
2023-03-21T08:22:38.497Z,14.07
2023-03-21T08:25:08.035Z,9.60
2023-03-21T08:27:37.786Z,8.20
2023-03-21T08:30:07.087Z,11.52
2023-03-21T08:32:35.438Z,8.77
2023-03-21T08:35:04.472Z,9.95
2023-03-21T08:37:32.808Z,13.98
2023-03-21T08:40:01.211Z,17.13
2023-03-21T08:42:32.470Z,12.25
2023-03-21T08:45:02.169Z,7.78
2023-03-21T08:47:30.548Z,9.52
2023-03-21T08:49:59.258Z,9.95
2023-03-21T08:52:28.003Z,11.32
2023-03-21T08:54:56.381Z,11.73
2023-03-21T08:57:24.731Z,9.43
2023-03-21T08:59:53.068Z,10.20
2023-03-21T09:02:22.779Z,9.15
2023-03-21T09:04:54.771Z,6.72
2023-03-21T09:07:25.719Z,8.73
2023-03-21T09:10:14.895Z,9.18
2023-03-21T09:12:42.491Z,5.47
2023-03-21T09:15:12.264Z,8.15
2023-03-21T09:17:43.202Z,5.82
2023-03-21T09:20:18.578Z,8.00
2023-03-21T09:22:50.257Z,6.60
2023-03-21T09:25:19.391Z,4.80
2023-03-21T09:27:47.964Z,7.47
2023-03-21T09:30:16.990Z,9.48
2023-03-21T09:32:49.369Z,15.23
2023-03-21T09:35:18.762Z,8.70
2023-03-21T09:37:47.278Z,7.63
2023-03-21T09:40:18.049Z,12.27
2023-03-21T09:42:52.367Z,7.47
2023-03-21T09:45:21.840Z,4.35
2023-03-21T09:47:53.772Z,6.43
2023-03-21T09:50:27.763Z,7.30
2023-03-21T09:52:58.169Z,6.63
2023-03-21T09:55:30.761Z,4.38
2023-03-21T09:58:05.685Z,8.52
2023-03-21T10:00:37.496Z,5.97
2023-03-21T10:03:15.421Z,6.45
2023-03-21T10:05:47.015Z,8.43
2023-03-21T10:08:17.580Z,6.35
2023-03-21T10:10:47.884Z,7.03
2023-03-21T10:13:18.341Z,4.90
2023-03-21T10:15:46.716Z,6.95
2023-03-21T10:18:20.574Z,8.88
2023-03-21T10:20:48.932Z,9.05
2023-03-21T10:23:17.725Z,5.15
2023-03-21T10:25:47.577Z,5.32
2023-03-21T10:28:19.663Z,6.63
2023-03-21T10:30:51.378Z,3.60
2023-03-21T10:33:21.795Z,4.18
2023-03-21T10:35:54.000Z,6.18
2023-03-21T10:38:24.002Z,3.75
2023-03-21T10:40:55.092Z,9.45
2023-03-21T10:43:37.734Z,4.35
2023-03-21T10:46:08.705Z,7.60
2023-03-21T10:48:39.640Z,5.05
2023-03-21T10:51:09.128Z,5.82
2023-03-21T10:53:39.729Z,6.45
2023-03-21T10:56:09.589Z,5.57
2023-03-21T10:58:39.994Z,4.45
2023-03-21T11:01:15.015Z,8.82
2023-03-21T11:03:46.795Z,4.28
2023-03-21T11:06:16.801Z,6.55
2023-03-21T11:08:46.923Z,5.75
2023-03-21T11:11:20.944Z,7.50
2023-03-21T11:13:56.231Z,6.18
2023-03-21T11:16:26.113Z,7.50
2023-03-21T11:18:58.908Z,8.30
2023-03-21T11:21:29.602Z,5.18
2023-03-21T11:23:58.148Z,4.35
2023-03-21T11:26:32.256Z,4.95
2023-03-21T11:29:00.699Z,5.78
2023-03-21T11:31:41.022Z,8.40
2023-03-21T11:34:10.946Z,4.72
2023-03-21T11:36:39.665Z,5.78
2023-03-21T11:39:28.754Z,7.47
2023-03-21T11:42:04.285Z,3.58
2023-03-21T11:44:33.593Z,6.18
2023-03-21T11:47:02.052Z,2.53
2023-03-21T11:49:31.833Z,5.15
2023-03-21T11:52:08.612Z,7.18
2023-03-21T11:54:42.851Z,3.75
2023-03-21T11:57:15.074Z,2.72
2023-03-21T11:59:46.464Z,5.55
2023-03-21T12:02:35.032Z,3.20
2023-03-21T12:05:06.634Z,4.10
2023-03-21T12:07:45.652Z,2.67
2023-03-21T12:10:35.227Z,5.10
2023-03-21T12:13:11.425Z,4.20
2023-03-21T12:15:41.828Z,3.63
2023-03-21T12:18:16.012Z,3.17
2023-03-21T12:20:46.401Z,5.75
2023-03-21T12:23:33.553Z,4.13
2023-03-21T12:26:09.001Z,5.68
2023-03-21T12:28:42.221Z,2.83
2023-03-21T12:31:15.529Z,3.40
2023-03-21T12:33:50.921Z,4.13
2023-03-21T12:36:27.492Z,7.70
2023-03-21T12:39:11.246Z,4.35
2023-03-21T12:41:41.347Z,5.00
2023-03-21T12:44:10.873Z,4.72
2023-03-21T12:46:42.082Z,2.97
2023-03-21T12:49:11.465Z,2.80
2023-03-21T12:51:42.272Z,3.95
2023-03-21T12:54:17.622Z,5.82
2023-03-21T12:56:49.202Z,3.45
2023-03-21T12:59:22.735Z,3.90
2023-03-21T13:01:52.605Z,3.05
2023-03-21T13:04:40.050Z,3.88
2023-03-21T13:07:11.489Z,4.85
2023-03-21T13:09:40.411Z,3.55
2023-03-21T13:12:17.440Z,2.40
2023-03-21T13:14:50.507Z,1.63
2023-03-21T13:17:22.787Z,3.00
2023-03-21T13:19:52.368Z,4.28
2023-03-21T13:22:23.422Z,2.13
2023-03-21T13:24:52.670Z,2.60
2023-03-21T13:27:26.493Z,2.53
2023-03-21T13:29:55.363Z,3.35
2023-03-21T13:32:26.374Z,4.57
2023-03-21T13:34:57.947Z,2.75
2023-03-21T13:37:30.661Z,3.70
2023-03-21T13:40:01.741Z,4.07
2023-03-21T13:42:33.334Z,2.13
2023-03-21T13:45:07.191Z,6.03
2023-03-21T13:47:41.365Z,4.90
2023-03-21T13:50:23.194Z,4.47
2023-03-21T13:53:32.690Z,5.63
2023-03-21T13:56:20.988Z,4.07
2023-03-21T13:59:02.412Z,4.95
2023-03-21T14:01:35.396Z,4.32
2023-03-21T14:04:11.686Z,1.92
2023-03-21T14:06:44.384Z,2.33
2023-03-21T14:09:17.793Z,1.77
2023-03-21T14:11:48.426Z,3.60
2023-03-21T14:14:16.775Z,3.45
2023-03-21T14:16:45.560Z,4.00
2023-03-21T14:19:13.881Z,2.67
2023-03-21T14:21:48.356Z,3.25
2023-03-21T14:24:18.291Z,2.45
2023-03-21T14:26:48.210Z,2.53
2023-03-21T14:29:26.009Z,4.10
2023-03-21T14:32:00.017Z,2.13
2023-03-21T14:34:31.171Z,2.85
2023-03-21T14:36:59.577Z,5.30
2023-03-21T14:39:32.445Z,2.22
2023-03-21T14:42:03.752Z,2.90
2023-03-21T14:44:44.137Z,3.25
2023-03-21T14:47:20.714Z,3.00
2023-03-21T14:49:49.689Z,4.65
2023-03-21T14:52:21.637Z,4.38
2023-03-21T14:54:51.554Z,2.20
2023-03-21T14:57:24.943Z,1.77
2023-03-21T14:59:54.005Z,3.72
2023-03-21T15:02:26.936Z,1.58
2023-03-21T15:04:56.462Z,2.03
2023-03-21T15:07:26.983Z,1.50
2023-03-21T15:09:57.404Z,6.53
2023-03-21T15:12:25.846Z,1.33
2023-03-21T15:14:54.208Z,3.70
2023-03-21T15:17:22.502Z,3.15
2023-03-21T15:19:50.794Z,2.67
2023-03-21T15:22:21.556Z,1.58
2023-03-21T15:24:52.368Z,1.67
2023-03-21T15:27:27.184Z,1.65
2023-03-21T15:29:57.648Z,1.38
2023-03-21T15:32:26.758Z,1.10
2023-03-21T15:34:56.394Z,2.28
2023-03-21T15:37:26.103Z,1.95
2023-03-21T15:39:55.481Z,3.35
2023-03-21T15:42:33.159Z,2.30
2023-03-21T15:45:03.053Z,3.70
2023-03-21T15:47:40.903Z,3.22
2023-03-21T15:50:11.416Z,1.17
2023-03-21T15:52:39.780Z,3.55
2023-03-21T15:55:25.829Z,2.15
2023-03-21T15:58:00.968Z,1.23
2023-03-21T16:00:34.155Z,1.50
2023-03-21T16:03:06.324Z,1.92
2023-03-21T16:05:35.033Z,1.38
2023-03-21T16:08:08.057Z,2.45
2023-03-21T16:10:38.607Z,2.15
2023-03-21T16:13:08.408Z,1.73
2023-03-21T16:15:36.814Z,1.83
2023-03-21T16:18:06.186Z,1.92
2023-03-21T16:20:36.932Z,1.73
2023-03-21T16:23:05.386Z,3.75
2023-03-21T16:25:35.282Z,2.42
2023-03-21T16:28:07.938Z,1.67
2023-03-21T16:30:37.208Z,2.80
2023-03-21T16:33:05.631Z,2.65
2023-03-21T16:35:34.015Z,3.40
2023-03-21T16:38:05.416Z,2.13
2023-03-21T16:40:36.043Z,1.85
2023-03-21T16:43:09.702Z,5.30
2023-03-21T16:45:39.458Z,4.65
2023-03-21T16:48:09.231Z,3.15
2023-03-21T16:50:38.956Z,3.58
2023-03-21T16:53:07.464Z,2.92
2023-03-21T16:55:35.853Z,4.28
2023-03-21T16:58:08.493Z,5.43
2023-03-21T17:00:37.466Z,4.32
2023-03-21T17:03:13.832Z,7.32
2023-03-21T17:05:42.372Z,5.50
2023-03-21T17:08:15.538Z,6.75
2023-03-21T17:10:43.902Z,6.00
2023-03-21T17:13:12.371Z,8.98
2023-03-21T17:15:41.452Z,8.70
2023-03-21T17:18:11.316Z,11.10
2023-03-21T17:20:41.629Z,4.20
2023-03-21T17:23:10.854Z,4.40
2023-03-21T17:25:39.174Z,3.95
2023-03-21T17:28:07.510Z,8.25
2023-03-21T17:30:36.694Z,5.85
2023-03-21T17:33:05.148Z,3.83
2023-03-21T17:35:34.916Z,5.45
2023-03-21T17:38:04.013Z,6.80
2023-03-21T17:40:32.801Z,4.07
2023-03-21T17:43:01.820Z,1.52
2023-03-21T17:45:30.284Z,6.22
2023-03-21T17:47:58.730Z,6.38
2023-03-21T17:50:28.204Z,4.50
2023-03-21T17:52:58.016Z,5.95
2023-03-21T17:55:26.307Z,6.43
2023-03-21T17:57:54.648Z,4.30
2023-03-21T18:00:23.805Z,4.35
2023-03-21T18:02:52.200Z,3.47
2023-03-21T18:05:21.285Z,4.35
2023-03-21T18:08:10.979Z,6.10
2023-03-21T18:10:41.584Z,5.40
2023-03-21T18:13:10.165Z,5.47
2023-03-21T18:15:44.162Z,5.65
2023-03-21T18:18:13.110Z,3.15
2023-03-21T18:20:58.435Z,4.70
2023-03-21T18:23:27.141Z,5.80
2023-03-21T18:25:56.907Z,4.30
2023-03-21T18:28:25.327Z,6.65
2023-03-21T18:31:08.248Z,8.30
2023-03-21T18:33:37.774Z,5.40
2023-03-21T18:36:07.800Z,4.40
2023-03-21T18:38:36.992Z,5.47
2023-03-21T18:41:07.586Z,3.08
2023-03-21T18:46:24.595Z,4.78
2023-03-21T18:48:52.906Z,3.58
2023-03-21T18:51:22.297Z,5.10
2023-03-21T18:53:50.588Z,3.65
2023-03-21T18:57:13.076Z,3.42
2023-03-21T18:59:08.518Z,5.40
2023-03-21T19:01:37.272Z,4.70
2023-03-21T19:04:20.863Z,5.90
2023-03-21T19:06:51.172Z,4.43
2023-03-21T19:09:19.493Z,5.00
2023-03-21T19:11:49.223Z,7.50
2023-03-21T19:14:17.941Z,2.58
2023-03-21T19:17:30.121Z,4.88
2023-03-21T19:19:35.062Z,5.20
2023-03-21T19:22:03.668Z,5.03
2023-03-21T19:24:31.999Z,3.30
2023-03-21T19:27:01.639Z,5.05
2023-03-21T19:29:29.915Z,7.47
2023-03-21T19:31:58.374Z,7.55
2023-03-21T19:34:27.543Z,3.22
2023-03-21T19:36:57.341Z,3.35
2023-03-21T19:39:25.993Z,6.10
2023-03-21T19:42:02.936Z,4.30
2023-03-21T19:44:42.119Z,6.25
2023-03-21T19:47:11.277Z,4.38
2023-03-21T19:50:20.773Z,2.90
2023-03-21T19:52:28.926Z,5.45
2023-03-21T19:54:57.264Z,4.85
2023-03-21T19:57:25.641Z,5.63
2023-03-21T19:59:55.352Z,6.20
2023-03-21T20:02:35.539Z,5.85
2023-03-21T20:05:05.997Z,2.63
2023-03-21T20:07:34.299Z,4.38
2023-03-21T20:10:02.668Z,3.60
2023-03-21T20:12:32.069Z,5.72
2023-03-21T20:15:16.548Z,5.32
2023-03-21T20:17:46.548Z,5.47
2023-03-21T20:20:17.392Z,4.55
2023-03-21T20:23:07.275Z,3.38
2023-03-21T20:25:36.925Z,3.63
2023-03-21T20:28:15.727Z,2.50
2023-03-21T20:30:50.915Z,4.43
2023-03-21T20:33:19.338Z,3.47
2023-03-21T20:38:36.495Z,3.75
2023-03-21T20:41:05.656Z,3.83
2023-03-21T20:44:24.424Z,3.50
2023-03-21T20:46:24.061Z,6.05
2023-03-21T20:48:52.445Z,2.42
2023-03-21T20:54:09.623Z,5.53
2023-03-21T20:56:37.929Z,2.05
2023-03-21T20:59:17.361Z,4.78
2023-03-21T21:01:53.574Z,3.08
2023-03-21T21:04:23.036Z,4.53
2023-03-21T21:06:55.716Z,2.92
2023-03-21T21:09:24.080Z,5.13
2023-03-21T21:12:09.704Z,4.68
2023-03-21T21:14:38.887Z,2.90
2023-03-21T21:17:24.593Z,3.38
2023-03-21T21:19:56.938Z,5.63
2023-03-21T21:22:25.402Z,3.45
2023-03-21T21:24:53.785Z,5.85
2023-03-21T21:27:22.194Z,2.80
2023-03-21T21:29:50.499Z,2.15
2023-03-21T21:32:20.728Z,5.95
2023-03-21T21:34:49.226Z,6.20
2023-03-21T21:37:17.573Z,2.95
2023-03-21T21:39:46.709Z,7.43
2023-03-21T21:42:15.145Z,2.00
2023-03-21T21:44:44.896Z,5.80
2023-03-21T21:47:13.251Z,3.35
2023-03-21T21:49:42.968Z,5.97
2023-03-21T21:52:13.611Z,2.38
2023-03-21T21:54:45.673Z,4.22
2023-03-21T21:57:14.582Z,2.50
2023-03-21T21:59:42.959Z,2.45
2023-03-21T22:02:13.795Z,6.03
2023-03-21T22:04:43.512Z,2.90
2023-03-21T22:07:14.619Z,2.95
2023-03-21T22:09:43.245Z,5.80
2023-03-21T22:12:11.692Z,2.05
2023-03-21T22:14:40.294Z,5.03
2023-03-21T22:17:08.740Z,3.35
2023-03-21T22:19:39.136Z,3.28
2023-03-21T22:22:09.994Z,4.70
2023-03-21T22:24:38.396Z,3.20
2023-03-21T22:27:06.703Z,3.15
2023-03-21T22:29:34.998Z,2.83
2023-03-21T22:32:03.376Z,1.10
2023-03-21T22:34:31.836Z,1.65
2023-03-21T22:37:00.180Z,2.38
2023-03-21T22:39:29.899Z,1.67
2023-03-21T22:42:00.883Z,2.25
2023-03-21T22:44:34.417Z,2.45
2023-03-21T22:47:03.483Z,4.05
2023-03-21T22:49:32.746Z,3.55
2023-03-21T22:52:01.116Z,2.72
2023-03-21T22:54:30.873Z,3.08
2023-03-21T22:56:59.269Z,7.60
2023-03-21T22:59:27.665Z,21.13
2023-03-21T23:01:56.559Z,8.38
2023-03-21T23:04:25.134Z,5.15
2023-03-21T23:06:53.556Z,4.47
2023-03-21T23:09:21.935Z,3.80
2023-03-21T23:11:51.580Z,3.67
2023-03-21T23:14:20.812Z,6.55
2023-03-21T23:16:49.548Z,3.22
2023-03-21T23:19:19.872Z,3.00
2023-03-21T23:21:48.529Z,2.58
2023-03-21T23:24:16.984Z,3.00
2023-03-21T23:26:45.383Z,4.47
2023-03-21T23:29:15.089Z,2.95
2023-03-21T23:31:43.443Z,3.17
2023-03-21T23:34:13.400Z,5.88
2023-03-21T23:36:41.765Z,3.20
2023-03-21T23:39:10.243Z,6.80
2023-03-21T23:41:38.575Z,3.90
2023-03-21T23:44:07.132Z,4.32
2023-03-21T23:46:36.839Z,7.57
2023-03-21T23:49:05.237Z,4.05
2023-03-21T23:51:33.520Z,3.88
2023-03-21T23:54:01.797Z,5.15
2023-03-21T23:56:30.208Z,4.68
2023-03-21T23:58:58.833Z,4.63
